NAX323 ESSA-LFKJ
Flight info
| Callsign | NAX323 |
|---|---|
| Flight time | N/A |
| Altitude | 38000 |
| Route | NOSLI N850 ABAMA DCT UNGAV DCT VEVAS L87 TADUV DCT AKOSI DCT BERAS DCT OLPIX/N0453F390 DCT UNTAD DCT VAREK |
| Aircraft | A20N/M-SDE2E3FGHIRWXY/LB1 |
Departure
| Time | 2026-05-05 19:31 |
|---|---|
| Airport | Stockholm-Arlanda Airport (ESSA) |
Arrival
| Time | N/A |
|---|---|
| Airport | Ajaccio Napoléon Bonaparte airport (LFKJ) |
| Time | Latitude | Longitude | Altitude | Speed | Heading |
|---|---|---|---|---|---|
| 2026-05-05 19:05 | 59.65397 | 17.93046 | 90 ft | 0 kts | 187° |
| 2026-05-05 19:22 | 59.65399 | 17.93047 | 117 ft | 2 kts | 187° |
| 2026-05-05 19:22 | 59.65415 | 17.93051 | 113 ft | 2 kts | 181° |
| 2026-05-05 19:23 | 59.65431 | 17.93054 | 114 ft | 2 kts | 196° |
| 2026-05-05 19:23 | 59.65446 | 17.93065 | 115 ft | 2 kts | 210° |
| 2026-05-05 19:23 | 59.65453 | 17.93073 | 113 ft | 0 kts | 217° |
| 2026-05-05 19:27 | 59.65444 | 17.93052 | 115 ft | 11 kts | 231° |
| 2026-05-05 19:27 | 59.65464 | 17.92861 | 116 ft | 13 kts | 276° |
| 2026-05-05 19:28 | 59.65437 | 17.92667 | 117 ft | 15 kts | 274° |
| 2026-05-05 19:28 | 59.65509 | 17.92566 | 115 ft | 14 kts | 335° |
| 2026-05-05 19:28 | 59.65608 | 17.92491 | 118 ft | 17 kts | 346° |
| 2026-05-05 19:28 | 59.65733 | 17.92432 | 119 ft | 20 kts | 348° |
| 2026-05-05 19:29 | 59.65867 | 17.92468 | 118 ft | 20 kts | 6° |
| 2026-05-05 19:29 | 59.66013 | 17.92506 | 121 ft | 22 kts | 8° |
| 2026-05-05 19:29 | 59.66168 | 17.92553 | 123 ft | 23 kts | 12° |
| 2026-05-05 19:29 | 59.66331 | 17.92618 | 123 ft | 25 kts | 11° |
| 2026-05-05 19:30 | 59.66509 | 17.92627 | 122 ft | 26 kts | 340° |
| 2026-05-05 19:30 | 59.66602 | 17.92376 | 122 ft | 27 kts | 230° |
| 2026-05-05 19:30 | 59.66406 | 17.92297 | 123 ft | 44 kts | 193° |
| 2026-05-05 19:30 | 59.65872 | 17.92103 | 119 ft | 110 kts | 191° |
| 2026-05-05 19:31 | 59.64948 | 17.91765 | 118 ft | 159 kts | 191° |
| 2026-05-05 19:31 | 59.63782 | 17.91311 | 336 ft | 179 kts | 192° |
| 2026-05-05 19:31 | 59.62605 | 17.90831 | 1204 ft | 168 kts | 193° |
| 2026-05-05 19:31 | 59.61482 | 17.90424 | 1970 ft | 166 kts | 193° |
| 2026-05-05 19:32 | 59.60294 | 17.89961 | 2369 ft | 182 kts | 200° |
| 2026-05-05 19:32 | 59.59191 | 17.88589 | 2702 ft | 199 kts | 234° |
| 2026-05-05 19:32 | 59.58665 | 17.86015 | 3245 ft | 213 kts | 269° |
| 2026-05-05 19:32 | 59.58663 | 17.83063 | 4148 ft | 216 kts | 267° |
| 2026-05-05 19:33 | 59.58344 | 17.80145 | 4726 ft | 221 kts | 250° |
| 2026-05-05 19:33 | 59.57652 | 17.77387 | 4973 ft | 242 kts | 245° |
| 2026-05-05 19:33 | 59.56668 | 17.74527 | 5695 ft | 259 kts | 228° |
| 2026-05-05 19:33 | 59.55213 | 17.72397 | 6759 ft | 264 kts | 210° |
| 2026-05-05 19:34 | 59.53551 | 17.70787 | 7755 ft | 268 kts | 210° |
| 2026-05-05 19:34 | 59.51865 | 17.69149 | 8750 ft | 272 kts | 210° |
| 2026-05-05 19:34 | 59.50160 | 17.67481 | 9749 ft | 275 kts | 210° |
| 2026-05-05 19:35 | 59.46562 | 17.63931 | 10859 ft | 310 kts | 211° |
| 2026-05-05 19:35 | 59.44580 | 17.61979 | 11408 ft | 324 kts | 211° |
| 2026-05-05 19:35 | 59.42585 | 17.60032 | 12317 ft | 325 kts | 211° |
| 2026-05-05 19:35 | 59.40557 | 17.58060 | 13234 ft | 327 kts | 212° |
| 2026-05-05 19:36 | 59.38515 | 17.56074 | 14109 ft | 328 kts | 213° |
| 2026-05-05 19:36 | 59.36481 | 17.54099 | 15046 ft | 325 kts | 213° |
| 2026-05-05 19:36 | 59.34460 | 17.52138 | 15937 ft | 324 kts | 214° |
| 2026-05-05 19:36 | 59.32436 | 17.50171 | 16804 ft | 324 kts | 215° |
| 2026-05-05 19:37 | 59.30417 | 17.48210 | 17661 ft | 324 kts | 216° |
| 2026-05-05 19:37 | 59.28398 | 17.46246 | 18427 ft | 325 kts | 216° |
| 2026-05-05 19:37 | 59.26356 | 17.44257 | 19024 ft | 330 kts | 216° |
| 2026-05-05 19:37 | 59.24426 | 17.42379 | 19581 ft | 334 kts | 215° |
| 2026-05-05 19:38 | 59.22366 | 17.40381 | 20189 ft | 337 kts | 215° |
| 2026-05-05 19:38 | 59.20256 | 17.38339 | 20770 ft | 341 kts | 215° |
| 2026-05-05 19:38 | 59.18124 | 17.36276 | 21363 ft | 344 kts | 215° |
| 2026-05-05 19:38 | 59.15967 | 17.34194 | 21960 ft | 348 kts | 215° |
| 2026-05-05 19:39 | 59.13785 | 17.32090 | 22548 ft | 351 kts | 214° |
| 2026-05-05 19:39 | 59.11581 | 17.29969 | 23117 ft | 355 kts | 214° |
| 2026-05-05 19:39 | 59.09357 | 17.27828 | 23666 ft | 358 kts | 215° |
| 2026-05-05 19:39 | 59.07208 | 17.25432 | 24167 ft | 355 kts | 220° |
| 2026-05-05 19:40 | 59.05222 | 17.22600 | 24639 ft | 353 kts | 226° |
| 2026-05-05 19:40 | 59.03338 | 17.19522 | 25107 ft | 356 kts | 226° |
| 2026-05-05 19:40 | 59.01435 | 17.16417 | 25577 ft | 358 kts | 226° |
| 2026-05-05 19:40 | 58.99541 | 17.13345 | 26018 ft | 361 kts | 226° |
| 2026-05-05 19:41 | 58.97576 | 17.10172 | 26468 ft | 364 kts | 226° |
| 2026-05-05 19:41 | 58.95647 | 17.07069 | 26894 ft | 367 kts | 226° |
| 2026-05-05 19:41 | 58.93673 | 17.03901 | 27318 ft | 370 kts | 226° |
| 2026-05-05 19:41 | 58.91684 | 17.00714 | 27733 ft | 372 kts | 226° |
| 2026-05-05 19:42 | 58.89682 | 16.97511 | 28135 ft | 375 kts | 226° |
| 2026-05-05 19:42 | 58.87664 | 16.94288 | 28509 ft | 378 kts | 226° |
| 2026-05-05 19:42 | 58.85630 | 16.91044 | 28902 ft | 380 kts | 226° |
| 2026-05-05 19:42 | 58.83584 | 16.87786 | 29252 ft | 383 kts | 226° |
| 2026-05-05 19:43 | 58.81520 | 16.84506 | 29606 ft | 385 kts | 226° |
| 2026-05-05 19:43 | 58.79475 | 16.81259 | 29949 ft | 388 kts | 226° |
| 2026-05-05 19:43 | 58.77384 | 16.77945 | 30262 ft | 390 kts | 225° |
| 2026-05-05 19:43 | 58.75282 | 16.74619 | 30564 ft | 392 kts | 225° |
| 2026-05-05 19:44 | 58.73166 | 16.71277 | 30870 ft | 395 kts | 225° |
| 2026-05-05 19:44 | 58.71035 | 16.67916 | 31202 ft | 396 kts | 225° |
| 2026-05-05 19:44 | 58.68906 | 16.64566 | 31592 ft | 395 kts | 225° |
| 2026-05-05 19:44 | 58.66779 | 16.61225 | 32002 ft | 395 kts | 225° |
| 2026-05-05 19:45 | 58.64659 | 16.57899 | 32386 ft | 394 kts | 225° |
| 2026-05-05 19:45 | 58.62534 | 16.54569 | 32779 ft | 393 kts | 225° |
| 2026-05-05 19:45 | 58.60414 | 16.51252 | 33154 ft | 393 kts | 225° |
| 2026-05-05 19:45 | 58.58327 | 16.47994 | 33523 ft | 392 kts | 225° |
| 2026-05-05 19:46 | 58.56215 | 16.44701 | 33880 ft | 391 kts | 225° |
| 2026-05-05 19:46 | 58.54101 | 16.41410 | 34158 ft | 392 kts | 225° |
| 2026-05-05 19:46 | 58.51984 | 16.38119 | 34385 ft | 393 kts | 225° |
| 2026-05-05 19:46 | 58.49859 | 16.34818 | 34608 ft | 394 kts | 224° |
| 2026-05-05 19:47 | 58.47727 | 16.31515 | 34829 ft | 395 kts | 224° |
| 2026-05-05 19:47 | 58.45591 | 16.28211 | 35055 ft | 396 kts | 224° |
| 2026-05-05 19:47 | 58.43448 | 16.24902 | 35261 ft | 397 kts | 224° |
| 2026-05-05 19:47 | 58.41330 | 16.21638 | 35476 ft | 398 kts | 224° |
| 2026-05-05 19:48 | 58.39176 | 16.18322 | 35691 ft | 398 kts | 224° |
| 2026-05-05 19:48 | 58.37019 | 16.15009 | 35896 ft | 399 kts | 224° |
| 2026-05-05 19:48 | 58.34853 | 16.11685 | 36113 ft | 400 kts | 224° |
| 2026-05-05 19:48 | 58.32684 | 16.08365 | 36321 ft | 400 kts | 224° |
| 2026-05-05 19:49 | 58.30512 | 16.05043 | 36508 ft | 402 kts | 224° |
| 2026-05-05 19:49 | 58.29068 | 16.02838 | 36621 ft | 402 kts | 224° |
| 2026-05-05 19:49 | 58.26146 | 15.98384 | 36881 ft | 403 kts | 223° |
| 2026-05-05 19:49 | 58.23958 | 15.95055 | 37050 ft | 404 kts | 223° |
| 2026-05-05 19:50 | 58.22506 | 15.92847 | 37162 ft | 404 kts | 223° |
| 2026-05-05 19:50 | 58.19592 | 15.88427 | 37378 ft | 405 kts | 223° |
| 2026-05-05 19:50 | 58.17392 | 15.85095 | 37559 ft | 406 kts | 223° |
| 2026-05-05 19:50 | 58.15182 | 15.81754 | 37720 ft | 406 kts | 223° |
| 2026-05-05 19:51 | 58.12978 | 15.78428 | 37880 ft | 407 kts | 223° |
| 2026-05-05 19:51 | 58.09283 | 15.72864 | 37934 ft | 407 kts | 223° |
| 2026-05-05 19:52 | 58.04860 | 15.66227 | 37934 ft | 406 kts | 223° |
| 2026-05-05 19:52 | 57.99458 | 15.59083 | 37933 ft | 412 kts | 214° |
| 2026-05-05 19:53 | 57.95144 | 15.55179 | 37933 ft | 417 kts | 207° |
| 2026-05-05 19:53 | 57.89567 | 15.51852 | 37944 ft | 422 kts | 202° |
| 2026-05-05 19:54 | 57.83927 | 15.48765 | 37948 ft | 423 kts | 202° |
| 2026-05-05 19:54 | 57.77388 | 15.45156 | 37929 ft | 420 kts | 202° |
| 2026-05-05 19:55 | 57.72722 | 15.42584 | 37931 ft | 421 kts | 202° |
| 2026-05-05 19:55 | 57.67110 | 15.39501 | 37932 ft | 421 kts | 202° |
| 2026-05-05 19:56 | 57.61489 | 15.36426 | 37934 ft | 421 kts | 202° |
| 2026-05-05 19:56 | 57.55872 | 15.33360 | 37935 ft | 421 kts | 202° |
| 2026-05-05 19:57 | 57.50250 | 15.30303 | 37936 ft | 421 kts | 202° |
| 2026-05-05 19:57 | 57.44631 | 15.27257 | 37939 ft | 421 kts | 202° |
| 2026-05-05 19:58 | 57.38989 | 15.24210 | 37944 ft | 422 kts | 202° |
| 2026-05-05 19:58 | 57.33398 | 15.21199 | 37940 ft | 422 kts | 202° |
| 2026-05-05 19:59 | 57.27759 | 15.18172 | 37941 ft | 422 kts | 202° |
| 2026-05-05 19:59 | 57.22128 | 15.15159 | 37943 ft | 422 kts | 202° |
| 2026-05-05 20:00 | 57.16488 | 15.12151 | 37935 ft | 422 kts | 202° |
| 2026-05-05 20:00 | 57.10849 | 15.09152 | 37928 ft | 422 kts | 202° |
| 2026-05-05 20:01 | 57.05250 | 15.06184 | 37925 ft | 422 kts | 202° |
| 2026-05-05 20:01 | 56.99616 | 15.03207 | 37924 ft | 421 kts | 202° |
| 2026-05-05 20:02 | 56.93974 | 15.00234 | 37915 ft | 421 kts | 202° |
| 2026-05-05 20:02 | 56.88345 | 14.97280 | 37917 ft | 421 kts | 202° |
| 2026-05-05 20:03 | 56.82712 | 14.94331 | 37922 ft | 421 kts | 201° |
| 2026-05-05 20:03 | 56.77125 | 14.91415 | 37913 ft | 421 kts | 201° |
| 2026-05-05 20:04 | 56.71491 | 14.88484 | 37917 ft | 421 kts | 201° |
| 2026-05-05 20:04 | 56.65864 | 14.85566 | 37916 ft | 420 kts | 201° |
| 2026-05-05 20:05 | 56.60236 | 14.82656 | 37918 ft | 420 kts | 201° |
| 2026-05-05 20:05 | 56.54609 | 14.79755 | 37917 ft | 420 kts | 201° |
| 2026-05-05 20:06 | 56.49015 | 14.76881 | 37920 ft | 421 kts | 201° |
| 2026-05-05 20:06 | 56.43385 | 14.73996 | 37912 ft | 421 kts | 201° |
| 2026-05-05 20:07 | 56.37747 | 14.71117 | 37910 ft | 421 kts | 201° |
| 2026-05-05 20:07 | 56.32105 | 14.68244 | 37917 ft | 421 kts | 201° |
| 2026-05-05 20:08 | 56.26462 | 14.65381 | 37918 ft | 422 kts | 201° |
| 2026-05-05 20:08 | 56.20850 | 14.62541 | 37920 ft | 422 kts | 201° |
| 2026-05-05 20:09 | 56.15199 | 14.59691 | 37920 ft | 422 kts | 201° |
| 2026-05-05 20:09 | 56.09545 | 14.56848 | 37924 ft | 422 kts | 201° |
| 2026-05-05 20:10 | 56.03885 | 14.54010 | 37931 ft | 422 kts | 201° |
| 2026-05-05 20:10 | 55.98262 | 14.51200 | 37932 ft | 422 kts | 201° |
| 2026-05-05 20:11 | 55.92606 | 14.48381 | 37929 ft | 422 kts | 200° |